sensor_id;sensor_type;location;lat;lon;timestamp;pressure;altitude;pressure_sealevel;temperature;humidity
42003;BME280;27693;50.506;30.832;2023-12-29T00:00:47;99600.23;;;4.13;97.65
42003;BME280;27693;50.506;30.832;2023-12-29T00:01:49;99606.20;;;4.15;97.56
42003;BME280;27693;50.506;30.832;2023-12-29T00:02:52;99607.81;;;4.19;97.57
42003;BME280;27693;50.506;30.832;2023-12-29T00:03:57;99605.24;;;4.19;97.60
42003;BME280;27693;50.506;30.832;2023-12-29T00:04:59;99613.80;;;4.21;97.58
42003;BME280;27693;50.506;30.832;2023-12-29T00:06:03;99606.94;;;4.22;97.69
42003;BME280;27693;50.506;30.832;2023-12-29T00:07:05;99606.81;;;4.26;97.70
42003;BME280;27693;50.506;30.832;2023-12-29T00:08:08;99605.02;;;4.30;97.69
42003;BME280;27693;50.506;30.832;2023-12-29T00:09:11;99605.84;;;4.32;97.62
42003;BME280;27693;50.506;30.832;2023-12-29T00:10:14;99606.62;;;4.36;97.57
42003;BME280;27693;50.506;30.832;2023-12-29T00:11:19;99607.45;;;4.36;97.44
42003;BME280;27693;50.506;30.832;2023-12-29T00:12:22;99610.84;;;4.38;97.32
42003;BME280;27693;50.506;30.832;2023-12-29T00:13:24;99606.56;;;4.39;97.27
42003;BME280;27693;50.506;30.832;2023-12-29T00:14:28;99609.97;;;4.39;97.30
42003;BME280;27693;50.506;30.832;2023-12-29T00:15:30;99613.33;;;4.43;97.38
42003;BME280;27693;50.506;30.832;2023-12-29T00:16:34;99613.28;;;4.46;97.41
42003;BME280;27693;50.506;30.832;2023-12-29T00:17:36;99616.64;;;4.48;97.30
42003;BME280;27693;50.506;30.832;2023-12-29T00:18:39;99615.81;;;4.47;97.33
42003;BME280;27693;50.506;30.832;2023-12-29T00:19:42;99614.11;;;4.46;97.57
42003;BME280;27693;50.506;30.832;2023-12-29T00:20:46;99619.22;;;4.48;97.62
42003;BME280;27693;50.506;30.832;2023-12-29T00:21:49;99609.73;;;4.50;97.58
42003;BME280;27693;50.506;30.832;2023-12-29T00:22:51;99608.91;;;4.50;97.76
42003;BME280;27693;50.506;30.832;2023-12-29T00:23:53;99611.44;;;4.51;97.73
42003;BME280;27693;50.506;30.832;2023-12-29T00:24:56;99611.44;;;4.51;97.79
42003;BME280;27693;50.506;30.832;2023-12-29T00:25:59;99609.65;;;4.53;97.91
42003;BME280;27693;50.506;30.832;2023-12-29T00:27:04;99607.98;;;4.52;97.89
42003;BME280;27693;50.506;30.832;2023-12-29T00:28:06;99607.89;;;4.55;97.89
42003;BME280;27693;50.506;30.832;2023-12-29T00:29:09;99605.31;;;4.55;98.12
42003;BME280;27693;50.506;30.832;2023-12-29T00:30:12;99601.97;;;4.52;98.13
42003;BME280;27693;50.506;30.832;2023-12-29T00:31:15;99601.91;;;4.55;98.25
42003;BME280;27693;50.506;30.832;2023-12-29T00:32:17;99603.47;;;4.60;98.29
42003;BME280;27693;50.506;30.832;2023-12-29T00:33:20;99598.22;;;4.65;98.16
42003;BME280;27693;50.506;30.832;2023-12-29T00:34:23;99592.92;;;4.71;98.01
42003;BME280;27693;50.506;30.832;2023-12-29T00:35:25;99595.39;;;4.76;97.73
42003;BME280;27693;50.506;30.832;2023-12-29T00:36:30;99590.23;;;4.76;97.49
42003;BME280;27693;50.506;30.832;2023-12-29T00:37:33;99584.27;;;4.74;97.58
42003;BME280;27693;50.506;30.832;2023-12-29T00:38:37;99588.53;;;4.75;97.76
42003;BME280;27693;50.506;30.832;2023-12-29T00:39:40;99587.66;;;4.76;97.84
42003;BME280;27693;50.506;30.832;2023-12-29T00:40:43;99591.05;;;4.78;97.79
42003;BME280;27693;50.506;30.832;2023-12-29T00:41:45;99586.78;;;4.77;97.95
42003;BME280;27693;50.506;30.832;2023-12-29T00:42:49;99593.63;;;4.78;97.90
42003;BME280;27693;50.506;30.832;2023-12-29T00:43:52;99586.78;;;4.77;98.00
42003;BME280;27693;50.506;30.832;2023-12-29T00:44:56;99584.16;;;4.78;97.87
42003;BME280;27693;50.506;30.832;2023-12-29T00:45:58;99580.64;;;4.83;97.90
42003;BME280;27693;50.506;30.832;2023-12-29T00:47:01;99578.98;;;4.80;97.92
42003;BME280;27693;50.506;30.832;2023-12-29T00:48:03;99571.25;;;4.80;98.11
42003;BME280;27693;50.506;30.832;2023-12-29T00:49:08;99574.56;;;4.85;98.18
42003;BME280;27693;50.506;30.832;2023-12-29T00:50:14;99571.83;;;4.91;97.93
42003;BME280;27693;50.506;30.832;2023-12-29T00:51:18;99572.64;;;4.93;97.74
42003;BME280;27693;50.506;30.832;2023-12-29T00:52:21;99565.63;;;4.99;97.61
42003;BME280;27693;50.506;30.832;2023-12-29T00:53:23;99563.77;;;5.04;97.51
42003;BME280;27693;50.506;30.832;2023-12-29T00:54:26;99575.78;;;5.05;97.22
42003;BME280;27693;50.506;30.832;2023-12-29T00:55:30;99579.34;;;5.01;97.08
42003;BME280;27693;50.506;30.832;2023-12-29T00:56:33;99565.70;;;4.95;97.11
42003;BME280;27693;50.506;30.832;2023-12-29T00:57:36;99564.00;;;4.94;97.31
42003;BME280;27693;50.506;30.832;2023-12-29T00:58:38;99564.86;;;4.95;97.35
42003;BME280;27693;50.506;30.832;2023-12-29T00:59:41;99568.25;;;4.97;97.45
42003;BME280;27693;50.506;30.832;2023-12-29T01:00:46;99561.42;;;4.94;97.45
42003;BME280;27693;50.506;30.832;2023-12-29T01:01:48;99562.33;;;4.93;97.41
42003;BME280;27693;50.506;30.832;2023-12-29T01:02:51;99565.95;;;4.86;97.62
42003;BME280;27693;50.506;30.832;2023-12-29T01:03:54;99567.70;;;4.84;97.89
42003;BME280;27693;50.506;30.832;2023-12-29T01:04:56;99567.70;;;4.84;98.10
42003;BME280;27693;50.506;30.832;2023-12-29T01:06:00;99564.31;;;4.82;98.51
42003;BME280;27693;50.506;30.832;2023-12-29T01:07:03;99564.31;;;4.82;98.51
42003;BME280;27693;50.506;30.832;2023-12-29T01:08:07;99558.23;;;4.85;98.33
42003;BME280;27693;50.506;30.832;2023-12-29T01:09:10;99561.72;;;4.84;98.44
42003;BME280;27693;50.506;30.832;2023-12-29T01:10:15;99562.55;;;4.84;98.41
42003;BME280;27693;50.506;30.832;2023-12-29T01:11:18;99559.97;;;4.84;98.48
42003;BME280;27693;50.506;30.832;2023-12-29T01:12:21;99561.72;;;4.84;98.54
42003;BME280;27693;50.506;30.832;2023-12-29T01:13:23;99559.16;;;4.82;98.59
42003;BME280;27693;50.506;30.832;2023-12-29T01:14:26;99551.42;;;4.82;98.68
42003;BME280;27693;50.506;30.832;2023-12-29T01:15:28;99548.89;;;4.80;98.80
42003;BME280;27693;50.506;30.832;2023-12-29T01:16:31;99550.63;;;4.80;98.83
42003;BME280;27693;50.506;30.832;2023-12-29T01:17:33;99550.54;;;4.83;98.84
42003;BME280;27693;50.506;30.832;2023-12-29T01:18:36;99550.49;;;4.85;98.82
42003;BME280;27693;50.506;30.832;2023-12-29T01:19:38;99544.45;;;4.86;98.79
42003;BME280;27693;50.506;30.832;2023-12-29T01:20:41;99545.38;;;4.83;98.84
42003;BME280;27693;50.506;30.832;2023-12-29T01:21:43;99540.33;;;4.80;99.02
42003;BME280;27693;50.506;30.832;2023-12-29T01:22:46;99551.47;;;4.80;99.21
42003;BME280;27693;50.506;30.832;2023-12-29T01:23:48;99548.94;;;4.79;99.31
42003;BME280;27693;50.506;30.832;2023-12-29T01:24:51;99545.38;;;4.83;99.34
42003;BME280;27693;50.506;30.832;2023-12-29T01:25:53;99548.84;;;4.82;99.29
42003;BME280;27693;50.506;30.832;2023-12-29T01:26:56;99554.97;;;4.78;99.55
42003;BME280;27693;50.506;30.832;2023-12-29T01:28:00;99552.34;;;4.79;99.58
42003;BME280;27693;50.506;30.832;2023-12-29T01:29:02;99550.63;;;4.80;99.60
42003;BME280;27693;50.506;30.832;2023-12-29T01:30:07;99554.00;;;4.82;99.63
42003;BME280;27693;50.506;30.832;2023-12-29T01:31:14;99548.84;;;4.82;99.57
42003;BME280;27693;50.506;30.832;2023-12-29T01:32:17;99547.96;;;4.83;99.62
42003;BME280;27693;50.506;30.832;2023-12-29T01:33:19;99551.25;;;4.90;99.58
42003;BME280;27693;50.506;30.832;2023-12-29T01:34:23;99558.07;;;4.91;99.41
42003;BME280;27693;50.506;30.832;2023-12-29T01:35:25;99554.61;;;4.92;99.31
42003;BME280;27693;50.506;30.832;2023-12-29T01:36:28;99553.78;;;4.91;99.22
42003;BME280;27693;50.506;30.832;2023-12-29T01:37:30;99546.86;;;4.93;99.21
42003;BME280;27693;50.506;30.832;2023-12-29T01:38:33;99544.34;;;4.90;99.20
42003;BME280;27693;50.506;30.832;2023-12-29T01:39:36;99555.54;;;4.89;99.29
42003;BME280;27693;50.506;30.832;2023-12-29T01:40:44;99544.34;;;4.90;99.37
42003;BME280;27693;50.506;30.832;2023-12-29T01:41:48;99552.90;;;4.92;99.32
42003;BME280;27693;50.506;30.832;2023-12-29T01:42:50;99545.16;;;4.92;99.43
42003;BME280;27693;50.506;30.832;2023-12-29T01:45:19;99552.96;;;4.89;99.48
42003;BME280;27693;50.506;30.832;2023-12-29T01:46:16;99554.66;;;4.90;99.62
42003;BME280;27693;50.506;30.832;2023-12-29T01:47:18;99552.08;;;4.90;99.63
42003;BME280;27693;50.506;30.832;2023-12-29T01:48:22;99554.61;;;4.92;99.70
42003;BME280;27693;50.506;30.832;2023-12-29T01:49:27;99554.59;;;4.93;99.67
42003;BME280;27693;50.506;30.832;2023-12-29T01:50:33;99563.21;;;4.92;99.78
42003;BME280;27693;50.506;30.832;2023-12-29T01:51:36;99553.78;;;4.91;99.84
42003;BME280;27693;50.506;30.832;2023-12-29T01:52:39;99551.25;;;4.90;99.91
42003;BME280;27693;50.506;30.832;2023-12-29T01:53:44;99548.67;;;4.90;99.88
42003;BME280;27693;50.506;30.832;2023-12-29T01:54:50;99559.70;;;4.95;99.86
42003;BME280;27693;50.506;30.832;2023-12-29T01:55:55;99547.62;;;4.97;99.75
42003;BME280;27693;50.506;30.832;2023-12-29T01:57:01;99551.04;;;4.98;99.64
42003;BME280;27693;50.506;30.832;2023-12-29T01:58:04;99547.53;;;5.00;99.64
42003;BME280;27693;50.506;30.832;2023-12-29T01:59:09;99545.88;;;4.98;99.61
42003;BME280;27693;50.506;30.832;2023-12-29T02:00:15;99551.81;;;5.01;99.61
42003;BME280;27693;50.506;30.832;2023-12-29T02:01:20;99549.17;;;5.04;99.50
42003;BME280;27693;50.506;30.832;2023-12-29T02:02:24;99541.22;;;5.12;99.42
42003;BME280;27693;50.506;30.832;2023-12-29T02:03:27;99551.42;;;5.17;99.16
42003;BME280;27693;50.506;30.832;2023-12-29T02:04:31;99549.77;;;5.14;98.93
42003;BME280;27693;50.506;30.832;2023-12-29T02:05:34;99557.53;;;5.12;99.02
42003;BME280;27693;50.506;30.832;2023-12-29T02:06:39;99550.77;;;5.08;99.11
42003;BME280;27693;50.506;30.832;2023-12-29T02:07:43;99556.74;;;5.10;99.20
42003;BME280;27693;50.506;30.832;2023-12-29T02:08:47;99555.00;;;5.11;99.23
42003;BME280;27693;50.506;30.832;2023-12-29T02:09:49;99560.25;;;5.08;99.31
42003;BME280;27693;50.506;30.832;2023-12-29T02:10:53;99551.77;;;5.03;99.48
42003;BME280;27693;50.506;30.832;2023-12-29T02:11:57;99551.77;;;5.03;99.48
42003;BME280;27693;50.506;30.832;2023-12-29T02:12:59;99551.77;;;5.03;99.68
42003;BME280;27693;50.506;30.832;2023-12-29T02:14:02;99549.19;;;5.03;99.83
42003;BME280;27693;50.506;30.832;2023-12-29T02:15:07;99545.77;;;5.02;99.91
42003;BME280;27693;50.506;30.832;2023-12-29T02:16:33;99544.14;;;4.98;100.00
42003;BME280;27693;50.506;30.832;2023-12-29T02:17:45;99557.02;;;5.00;100.00
42003;BME280;27693;50.506;30.832;2023-12-29T02:18:49;99555.38;;;4.95;100.00
42003;BME280;27693;50.506;30.832;2023-12-29T02:19:52;99550.16;;;4.99;100.00
42003;BME280;27693;50.506;30.832;2023-12-29T02:20:55;99550.99;;;4.99;100.00
42003;BME280;27693;50.506;30.832;2023-12-29T02:21:57;99547.70;;;4.94;100.00
42003;BME280;27693;50.506;30.832;2023-12-29T02:23:00;99548.53;;;4.94;100.00
42003;BME280;27693;50.506;30.832;2023-12-29T02:24:05;99536.55;;;4.93;100.00
42003;BME280;27693;50.506;30.832;2023-12-29T02:25:08;99537.33;;;4.95;100.00
42003;BME280;27693;50.506;30.832;2023-12-29T02:26:14;99525.33;;;4.94;100.00
42003;BME280;27693;50.506;30.832;2023-12-29T02:28:44;99521.70;;;5.02;100.00
42003;BME280;27693;50.506;30.832;2023-12-29T02:30:10;99520.82;;;5.03;100.00
42003;BME280;27693;50.506;30.832;2023-12-29T02:31:17;99525.91;;;5.06;100.00
42003;BME280;27693;50.506;30.832;2023-12-29T02:32:22;99529.33;;;5.06;100.00
42003;BME280;27693;50.506;30.832;2023-12-29T02:33:27;99531.89;;;5.08;100.00
42003;BME280;27693;50.506;30.832;2023-12-29T02:34:32;99521.64;;;5.05;100.00
42003;BME280;27693;50.506;30.832;2023-12-29T02:35:38;99522.45;;;5.07;100.00
42003;BME280;27693;50.506;30.832;2023-12-29T02:36:42;99522.52;;;5.04;100.00
42003;BME280;27693;50.506;30.832;2023-12-29T02:37:46;99526.84;;;5.03;100.00
42003;BME280;27693;50.506;30.832;2023-12-29T02:38:49;99533.71;;;5.03;100.00
42003;BME280;27693;50.506;30.832;2023-12-29T02:39:52;99531.14;;;5.03;100.00
42003;BME280;27693;50.506;30.832;2023-12-29T02:40:56;99532.83;;;5.04;100.00
42003;BME280;27693;50.506;30.832;2023-12-29T02:41:59;99530.14;;;5.08;100.00
42003;BME280;27693;50.506;30.832;2023-12-29T02:43:03;99530.14;;;5.08;100.00
42003;BME280;27693;50.506;30.832;2023-12-29T02:44:05;99528.54;;;5.04;100.00
42003;BME280;27693;50.506;30.832;2023-12-29T02:45:08;99519.22;;;4.99;100.00
42003;BME280;27693;50.506;30.832;2023-12-29T02:46:13;99536.34;;;5.01;100.00
42003;BME280;27693;50.506;30.832;2023-12-29T02:47:15;99532.93;;;5.01;100.00
42003;BME280;27693;50.506;30.832;2023-12-29T02:48:20;99527.77;;;5.01;100.00
42003;BME280;27693;50.506;30.832;2023-12-29T02:49:23;99528.54;;;5.04;100.00
42003;BME280;27693;50.506;30.832;2023-12-29T02:50:26;99525.05;;;5.05;100.00
42003;BME280;27693;50.506;30.832;2023-12-29T02:51:29;99526.80;;;5.05;100.00
42003;BME280;27693;50.506;30.832;2023-12-29T02:52:32;99520.75;;;5.06;100.00
42003;BME280;27693;50.506;30.832;2023-12-29T02:53:34;99520.75;;;5.06;100.00
42003;BME280;27693;50.506;30.832;2023-12-29T02:54:36;99517.20;;;5.10;100.00
42003;BME280;27693;50.506;30.832;2023-12-29T02:55:40;99522.35;;;5.10;100.00
42003;BME280;27693;50.506;30.832;2023-12-29T02:56:43;99522.35;;;5.10;100.00
42003;BME280;27693;50.506;30.832;2023-12-29T02:57:47;99524.15;;;5.08;100.00
42003;BME280;27693;50.506;30.832;2023-12-29T02:58:49;99523.17;;;5.12;100.00
42003;BME280;27693;50.506;30.832;2023-12-29T02:59:53;99517.96;;;5.14;100.00
42003;BME280;27693;50.506;30.832;2023-12-29T03:00:57;99520.48;;;5.15;100.00
42003;BME280;27693;50.506;30.832;2023-12-29T03:01:59;99515.33;;;5.15;100.00
42003;BME280;27693;50.506;30.832;2023-12-29T03:03:03;99522.29;;;5.13;100.00
42003;BME280;27693;50.506;30.832;2023-12-29T03:04:05;99524.81;;;5.15;100.00
42003;BME280;27693;50.506;30.832;2023-12-29T03:05:09;99516.20;;;5.16;100.00
42003;BME280;27693;50.506;30.832;2023-12-29T03:06:12;99513.56;;;5.17;100.00
42003;BME280;27693;50.506;30.832;2023-12-29T03:07:15;99515.27;;;5.18;100.00
42003;BME280;27693;50.506;30.832;2023-12-29T03:08:18;99511.86;;;5.18;100.00
42003;BME280;27693;50.506;30.832;2023-12-29T03:09:20;99510.17;;;5.15;100.00
42003;BME280;27693;50.506;30.832;2023-12-29T03:10:22;99501.56;;;5.16;100.00
42003;BME280;27693;50.506;30.832;2023-12-29T03:11:25;99507.58;;;5.17;100.00
42003;BME280;27693;50.506;30.832;2023-12-29T03:12:27;99511.88;;;5.16;100.00
42003;BME280;27693;50.506;30.832;2023-12-29T03:13:32;99511.97;;;5.13;100.00
42003;BME280;27693;50.506;30.832;2023-12-29T03:14:34;99518.83;;;5.14;100.00
42003;BME280;27693;50.506;30.832;2023-12-29T03:15:36;99520.59;;;5.12;100.00
42003;BME280;27693;50.506;30.832;2023-12-29T03:16:39;99515.33;;;5.15;100.00
42003;BME280;27693;50.506;30.832;2023-12-29T03:17:42;99515.33;;;5.15;100.00
42003;BME280;27693;50.506;30.832;2023-12-29T03:18:45;99517.03;;;5.16;100.00
42003;BME280;27693;50.506;30.832;2023-12-29T03:19:48;99514.44;;;5.18;100.00
42003;BME280;27693;50.506;30.832;2023-12-29T03:20:51;99510.04;;;5.21;100.00
42003;BME280;27693;50.506;30.832;2023-12-29T03:21:53;99517.78;;;5.21;100.00
42003;BME280;27693;50.506;30.832;2023-12-29T03:22:56;99513.50;;;5.20;100.00
42003;BME280;27693;50.506;30.832;2023-12-29T03:23:59;99514.28;;;5.22;100.00
42003;BME280;27693;50.506;30.832;2023-12-29T03:25:02;99510.92;;;5.20;100.00
42003;BME280;27693;50.506;30.832;2023-12-29T03:26:06;99506.41;;;5.28;100.00
42003;BME280;27693;50.506;30.832;2023-12-29T03:27:09;99515.73;;;5.33;100.00
42003;BME280;27693;50.506;30.832;2023-12-29T03:28:12;99510.48;;;5.36;100.00
42003;BME280;27693;50.506;30.832;2023-12-29T03:29:15;99521.44;;;5.44;100.00
42003;BME280;27693;50.506;30.832;2023-12-29T03:30:19;99511.92;;;5.46;100.00
42003;BME280;27693;50.506;30.832;2023-12-29T03:31:21;99514.69;;;5.40;100.00
42003;BME280;27693;50.506;30.832;2023-12-29T03:32:24;99513.99;;;5.33;100.00
42003;BME280;27693;50.506;30.832;2023-12-29T03:33:26;99519.91;;;5.37;100.00
42003;BME280;27693;50.506;30.832;2023-12-29T03:34:29;99518.09;;;5.40;100.00
42003;BME280;27693;50.506;30.832;2023-12-29T03:35:31;99519.08;;;5.36;100.00
42003;BME280;27693;50.506;30.832;2023-12-29T03:36:34;99520.03;;;5.32;100.00
42003;BME280;27693;50.506;30.832;2023-12-29T03:37:37;99514.86;;;5.34;100.00
42003;BME280;27693;50.506;30.832;2023-12-29T03:38:40;99519.13;;;5.35;100.00
42003;BME280;27693;50.506;30.832;2023-12-29T03:39:43;99521.44;;;5.44;100.00
42003;BME280;27693;50.506;30.832;2023-12-29T03:40:47;99523.19;;;5.43;100.00
42003;BME280;27693;50.506;30.832;2023-12-29T03:41:49;99518.31;;;5.33;100.00
42003;BME280;27693;50.506;30.832;2023-12-29T03:42:51;99517.39;;;5.35;100.00
42003;BME280;27693;50.506;30.832;2023-12-29T03:43:57;99513.05;;;5.36;100.00
42003;BME280;27693;50.506;30.832;2023-12-29T03:44:59;99517.45;;;5.32;100.00
42003;BME280;27693;50.506;30.832;2023-12-29T03:46:02;99513.33;;;5.26;100.00
42003;BME280;27693;50.506;30.832;2023-12-29T03:47:05;99515.79;;;5.31;100.00
42003;BME280;27693;50.506;30.832;2023-12-29T03:48:08;99521.83;;;5.30;100.00
42003;BME280;27693;50.506;30.832;2023-12-29T03:49:12;99520.20;;;5.26;100.00
42003;BME280;27693;50.506;30.832;2023-12-29T03:50:16;99519.55;;;5.19;100.00
42003;BME280;27693;50.506;30.832;2023-12-29T03:51:20;99518.56;;;5.23;100.00
42003;BME280;27693;50.506;30.832;2023-12-29T03:52:24;99516.80;;;5.25;100.00
42003;BME280;27693;50.506;30.832;2023-12-29T03:53:26;99515.27;;;5.18;100.00
42003;BME280;27693;50.506;30.832;2023-12-29T03:54:28;99510.04;;;5.21;100.00
42003;BME280;27693;50.506;30.832;2023-12-29T03:55:31;99520.08;;;5.31;100.00
42003;BME280;27693;50.506;30.832;2023-12-29T03:56:34;99518.22;;;5.36;100.00
42003;BME280;27693;50.506;30.832;2023-12-29T03:57:42;99518.22;;;5.36;100.00
42003;BME280;27693;50.506;30.832;2023-12-29T03:58:45;99518.31;;;5.33;100.00
42003;BME280;27693;50.506;30.832;2023-12-29T03:59:47;99516.72;;;5.28;100.00
42003;BME280;27693;50.506;30.832;2023-12-29T04:00:50;99511.63;;;5.25;100.00
42003;BME280;27693;50.506;30.832;2023-12-29T04:01:53;99510.88;;;5.22;100.00
42003;BME280;27693;50.506;30.832;2023-12-29T04:02:56;99518.66;;;5.20;100.00
42003;BME280;27693;50.506;30.832;2023-12-29T04:03:58;99501.39;;;5.22;100.00
42003;BME280;27693;50.506;30.832;2023-12-29T04:05:00;99513.23;;;5.30;100.00
42003;BME280;27693;50.506;30.832;2023-12-29T04:06:04;99518.48;;;5.26;100.00
42003;BME280;27693;50.506;30.832;2023-12-29T04:07:07;99517.78;;;5.21;100.00
42003;BME280;27693;50.506;30.832;2023-12-29T04:08:10;99520.42;;;5.18;100.00
42003;BME280;27693;50.506;30.832;2023-12-29T04:09:14;99525.53;;;5.20;100.00
42003;BME280;27693;50.506;30.832;2023-12-29T04:10:17;99514.28;;;5.22;100.00
42003;BME280;27693;50.506;30.832;2023-12-29T04:11:20;99515.05;;;5.26;100.00
42003;BME280;27693;50.506;30.832;2023-12-29T04:12:22;99515.86;;;5.28;100.00
42003;BME280;27693;50.506;30.832;2023-12-29T04:13:26;99515.03;;;5.27;100.00
42003;BME280;27693;50.506;30.832;2023-12-29T04:14:29;99512.52;;;5.24;100.00
42003;BME280;27693;50.506;30.832;2023-12-29T04:15:32;99518.56;;;5.23;100.00
42003;BME280;27693;50.506;30.832;2023-12-29T04:16:37;99518.56;;;5.23;100.00
42003;BME280;27693;50.506;30.832;2023-12-29T04:17:40;99521.25;;;5.19;100.00
42003;BME280;27693;50.506;30.832;2023-12-29T04:18:43;99523.00;;;5.18;100.00
42003;BME280;27693;50.506;30.832;2023-12-29T04:19:46;99535.13;;;5.15;100.00
42003;BME280;27693;50.506;30.832;2023-12-29T04:20:48;99524.86;;;5.13;100.00
42003;BME280;27693;50.506;30.832;2023-12-29T04:21:52;99518.06;;;5.10;100.00
42003;BME280;27693;50.506;30.832;2023-12-29T04:22:55;99531.73;;;5.12;100.00
42003;BME280;27693;50.506;30.832;2023-12-29T04:23:58;99527.33;;;5.18;100.00
42003;BME280;27693;50.506;30.832;2023-12-29T04:25:00;99537.66;;;5.16;100.00
42003;BME280;27693;50.506;30.832;2023-12-29T04:26:03;99530.91;;;5.12;100.00
42003;BME280;27693;50.506;30.832;2023-12-29T04:27:07;99531.89;;;5.08;100.00
42003;BME280;27693;50.506;30.832;2023-12-29T04:28:09;99527.52;;;5.10;100.00
42003;BME280;27693;50.506;30.832;2023-12-29T04:29:12;99524.00;;;5.12;100.00
42003;BME280;27693;50.506;30.832;2023-12-29T04:30:15;99525.62;;;5.17;100.00
42003;BME280;27693;50.506;30.832;2023-12-29T04:31:18;99530.91;;;5.12;100.00
42003;BME280;27693;50.506;30.832;2023-12-29T04:32:20;99527.56;;;5.08;100.00
42003;BME280;27693;50.506;30.832;2023-12-29T04:33:22;99522.45;;;5.07;100.00
42003;BME280;27693;50.506;30.832;2023-12-29T04:34:26;99524.98;;;5.08;100.00
42003;BME280;27693;50.506;30.832;2023-12-29T04:35:30;99521.57;;;5.08;100.00
42003;BME280;27693;50.506;30.832;2023-12-29T04:36:33;99527.52;;;5.10;100.00
42003;BME280;27693;50.506;30.832;2023-12-29T04:37:36;99517.96;;;5.14;100.00
42003;BME280;27693;50.506;30.832;2023-12-29T04:38:39;99530.09;;;5.10;100.00
42003;BME280;27693;50.506;30.832;2023-12-29T04:39:42;99520.66;;;5.09;100.00
42003;BME280;27693;50.506;30.832;2023-12-29T04:40:45;99520.66;;;5.09;100.00
42003;BME280;27693;50.506;30.832;2023-12-29T04:41:49;99515.50;;;5.09;100.00
42003;BME280;27693;50.506;30.832;2023-12-29T04:42:53;99518.13;;;5.07;100.00
42003;BME280;27693;50.506;30.832;2023-12-29T04:43:56;99513.91;;;5.05;100.00
42003;BME280;27693;50.506;30.832;2023-12-29T04:44:58;99517.36;;;5.04;100.00
42003;BME280;27693;50.506;30.832;2023-12-29T04:46:01;99511.39;;;5.02;100.00
42003;BME280;27693;50.506;30.832;2023-12-29T04:47:03;99514.06;;;4.99;100.00
42003;BME280;27693;50.506;30.832;2023-12-29T04:48:06;99506.37;;;4.97;100.00
42003;BME280;27693;50.506;30.832;2023-12-29T04:49:09;99514.13;;;4.95;100.00
42003;BME280;27693;50.506;30.832;2023-12-29T04:50:12;99515.00;;;4.96;100.00
42003;BME280;27693;50.506;30.832;2023-12-29T04:51:15;99520.17;;;4.94;100.00
42003;BME280;27693;50.506;30.832;2023-12-29T04:52:17;99515.06;;;4.93;100.00
42003;BME280;27693;50.506;30.832;2023-12-29T04:53:20;99515.06;;;4.93;100.00
42003;BME280;27693;50.506;30.832;2023-12-29T04:54:23;99513.20;;;4.98;100.00
42003;BME280;27693;50.506;30.832;2023-12-29T04:55:26;99516.69;;;4.97;100.00
42003;BME280;27693;50.506;30.832;2023-12-29T04:56:29;99510.78;;;4.92;100.00
42003;BME280;27693;50.506;30.832;2023-12-29T04:57:32;99510.78;;;4.92;100.00
42003;BME280;27693;50.506;30.832;2023-12-29T04:58:34;99518.56;;;4.90;100.00
42003;BME280;27693;50.506;30.832;2023-12-29T04:59:37;99518.56;;;4.90;100.00
42003;BME280;27693;50.506;30.832;2023-12-29T05:00:40;99518.68;;;4.86;100.00
42003;BME280;27693;50.506;30.832;2023-12-29T05:01:43;99527.28;;;4.86;100.00
42003;BME280;27693;50.506;30.832;2023-12-29T05:02:45;99524.86;;;4.80;100.00
42003;BME280;27693;50.506;30.832;2023-12-29T05:03:47;99523.16;;;4.79;100.00
42003;BME280;27693;50.506;30.832;2023-12-29T05:04:50;99529.15;;;4.79;100.00
42003;BME280;27693;50.506;30.832;2023-12-29T05:05:53;99524.86;;;4.80;100.00
42003;BME280;27693;50.506;30.832;2023-12-29T05:07:01;99524.92;;;4.77;100.00
42003;BME280;27693;50.506;30.832;2023-12-29T05:08:04;99526.63;;;4.78;100.00
42003;BME280;27693;50.506;30.832;2023-12-29T05:09:06;99530.08;;;4.77;100.00
42003;BME280;27693;50.506;30.832;2023-12-29T05:10:09;99528.37;;;4.76;100.00
42003;BME280;27693;50.506;30.832;2023-12-29T05:11:11;99529.24;;;4.76;100.00
42003;BME280;27693;50.506;30.832;2023-12-29T05:12:14;99522.39;;;4.75;100.00
42003;BME280;27693;50.506;30.832;2023-12-29T05:13:17;99519.00;;;4.73;100.00
42003;BME280;27693;50.506;30.832;2023-12-29T05:14:20;99525.84;;;4.74;100.00
42003;BME280;27693;50.506;30.832;2023-12-29T05:15:22;99530.95;;;4.76;100.00
42003;BME280;27693;50.506;30.832;2023-12-29T05:16:26;99526.84;;;4.69;100.00
42003;BME280;27693;50.506;30.832;2023-12-29T05:17:29;99526.94;;;4.66;100.00
42003;BME280;27693;50.506;30.832;2023-12-29T05:18:31;99528.75;;;4.60;100.00
42003;BME280;27693;50.506;30.832;2023-12-29T05:19:33;99523.59;;;4.60;100.00
42003;BME280;27693;50.506;30.832;2023-12-29T05:20:37;99526.31;;;4.56;100.00
42003;BME280;27693;50.506;30.832;2023-12-29T05:21:39;99527.14;;;4.56;100.00
42003;BME280;27693;50.506;30.832;2023-12-29T05:22:41;99520.23;;;4.58;100.00
42003;BME280;27693;50.506;30.832;2023-12-29T05:23:44;99525.53;;;4.52;100.00
42003;BME280;27693;50.506;30.832;2023-12-29T05:24:47;99526.52;;;4.46;100.00
42003;BME280;27693;50.506;30.832;2023-12-29T05:25:49;99522.44;;;4.38;100.00
42003;BME280;27693;50.506;30.832;2023-12-29T05:26:53;99522.45;;;4.36;100.00
42003;BME280;27693;50.506;30.832;2023-12-29T05:27:56;99532.74;;;4.38;100.00
42003;BME280;27693;50.506;30.832;2023-12-29T05:28:58;99529.39;;;4.34;100.00
42003;BME280;27693;50.506;30.832;2023-12-29T05:30:01;99522.44;;;4.38;100.00
42003;BME280;27693;50.506;30.832;2023-12-29T05:31:03;99531.05;;;4.37;100.00
42003;BME280;27693;50.506;30.832;2023-12-29T05:32:06;99531.05;;;4.37;100.00
42003;BME280;27693;50.506;30.832;2023-12-29T05:33:09;99528.42;;;4.38;100.00
42003;BME280;27693;50.506;30.832;2023-12-29T05:34:11;99531.05;;;4.37;100.00
42003;BME280;27693;50.506;30.832;2023-12-29T05:35:15;99522.59;;;4.31;100.00
42003;BME280;27693;50.506;30.832;2023-12-29T05:36:17;99539.84;;;4.26;100.00